createdAt,value
2017-08-12T00:00:01.034Z,0
2017-08-12T00:01:10.679Z,0
2017-08-12T00:02:20.638Z,0
2017-08-12T00:03:30.918Z,0
2017-08-12T00:04:40.878Z,0
2017-08-12T00:05:50.520Z,0
2017-08-12T00:07:00.476Z,0
2017-08-12T00:08:10.121Z,0
2017-08-12T00:09:20.402Z,0
2017-08-12T00:10:30.357Z,0
2017-08-12T00:11:40.629Z,0
2017-08-12T00:12:50.584Z,0
2017-08-12T00:14:00.855Z,0
2017-08-12T00:15:11.129Z,0
2017-08-12T00:16:21.399Z,0
2017-08-12T00:17:31.358Z,0
2017-08-12T00:18:41.633Z,0
2017-08-12T00:19:51.902Z,0
2017-08-12T00:21:01.860Z,0
2017-08-12T00:22:12.133Z,0
2017-08-12T00:23:22.088Z,0
2017-08-12T00:24:32.046Z,0
2017-08-12T00:25:42.314Z,0
2017-08-12T00:26:52.584Z,0
2017-08-12T00:28:02.540Z,0
2017-08-12T00:29:12.818Z,0
2017-08-12T00:30:22.770Z,0
2017-08-12T00:31:33.040Z,0
2017-08-12T00:32:43.317Z,0
2017-08-12T00:33:52.961Z,0
2017-08-12T00:35:03.236Z,0
2017-08-12T00:36:13.514Z,0
2017-08-12T00:37:23.787Z,0
2017-08-12T00:38:33.745Z,0
2017-08-12T00:39:44.017Z,0
2017-08-12T00:40:53.660Z,0
2017-08-12T00:42:03.621Z,0
2017-08-12T00:43:13.891Z,0
2017-08-12T00:44:23.852Z,0
2017-08-12T00:45:33.808Z,0
2017-08-12T00:46:44.088Z,0
2017-08-12T00:47:54.358Z,0
2017-08-12T00:49:04.631Z,0
2017-08-12T00:50:14.899Z,0
2017-08-12T00:51:24.871Z,0
2017-08-12T00:52:35.141Z,0
2017-08-12T00:53:45.410Z,0
2017-08-12T00:54:55.681Z,0
2017-08-12T00:56:05.638Z,0
2017-08-12T00:57:15.910Z,0
2017-08-12T00:58:26.180Z,0
2017-08-12T00:59:35.821Z,0
2017-08-12T01:00:45.513Z,0
2017-08-12T01:01:55.468Z,0
2017-08-12T01:03:05.429Z,0
2017-08-12T01:04:14.758Z,0
2017-08-12T01:05:25.030Z,0
2017-08-12T01:06:34.989Z,0
2017-08-12T01:07:45.262Z,0
2017-08-12T01:08:55.215Z,0
2017-08-12T01:10:05.485Z,0
2017-08-12T01:11:15.128Z,0
2017-08-12T01:12:25.082Z,0
2017-08-12T01:13:35.041Z,0
2017-08-12T01:14:45.336Z,0
2017-08-12T01:15:55.651Z,0
2017-08-12T01:17:05.293Z,0
2017-08-12T01:18:15.249Z,0
2017-08-12T01:19:24.893Z,0
2017-08-12T01:20:35.167Z,0
2017-08-12T01:21:45.434Z,0
2017-08-12T01:22:55.716Z,0
2017-08-12T01:24:05.677Z,0
2017-08-12T01:25:15.950Z,0
2017-08-12T01:26:26.227Z,0
2017-08-12T01:27:36.182Z,0
2017-08-12T01:28:46.458Z,0
2017-08-12T01:29:56.413Z,0
2017-08-12T01:31:06.371Z,0
2017-08-12T01:32:16.642Z,0
2017-08-12T01:33:26.624Z,0
2017-08-12T01:34:36.580Z,0
2017-08-12T01:35:46.854Z,0
2017-08-12T01:36:57.125Z,0
2017-08-12T01:38:07.403Z,0
2017-08-12T01:39:17.676Z,0
2017-08-12T01:40:27.641Z,0
2017-08-12T01:41:37.601Z,0
2017-08-12T01:42:47.874Z,0
2017-08-12T01:43:58.146Z,0
2017-08-12T01:45:08.421Z,0
2017-08-12T01:46:18.695Z,0
2017-08-12T01:47:28.658Z,0
2017-08-12T01:48:38.933Z,0
2017-08-12T01:49:49.204Z,0
2017-08-12T01:50:59.478Z,0
2017-08-12T01:52:09.756Z,0
2017-08-12T01:53:19.396Z,0
2017-08-12T01:54:29.674Z,0
2017-08-12T01:55:39.630Z,0
2017-08-12T01:56:49.935Z,0
2017-08-12T01:58:00.208Z,0
2017-08-12T01:59:10.482Z,0
2017-08-12T02:00:19.812Z,0
2017-08-12T02:01:30.088Z,0
2017-08-12T02:02:40.049Z,0
2017-08-12T02:03:50.004Z,0
2017-08-12T02:05:00.306Z,0
2017-08-12T02:06:10.578Z,0
2017-08-12T02:07:19.908Z,0
2017-08-12T02:08:29.865Z,0
2017-08-12T02:09:39.509Z,0
2017-08-12T02:10:49.780Z,0
2017-08-12T02:12:00.051Z,0
2017-08-12T02:13:10.008Z,0
2017-08-12T02:14:19.748Z,0
2017-08-12T02:15:29.704Z,0
2017-08-12T02:16:39.347Z,0
2017-08-12T02:17:49.620Z,0
2017-08-12T02:18:59.906Z,0
2017-08-12T02:20:10.188Z,0
2017-08-12T02:21:20.464Z,0
2017-08-12T02:22:30.732Z,0
2017-08-12T02:23:41.003Z,0
2017-08-12T02:24:51.275Z,0
2017-08-12T02:26:01.232Z,0
2017-08-12T02:27:11.186Z,0
2017-08-12T02:28:21.456Z,0
2017-08-12T02:29:31.723Z,0
2017-08-12T02:30:42.004Z,0
2017-08-12T02:31:52.281Z,0
2017-08-12T02:33:02.553Z,0
2017-08-12T02:34:12.832Z,0
2017-08-12T02:35:23.103Z,0
2017-08-12T02:36:32.744Z,0
2017-08-12T02:37:43.018Z,0
2017-08-12T02:38:52.982Z,0
2017-08-12T02:40:02.941Z,4
2017-08-12T02:41:12.901Z,4
2017-08-12T02:42:22.860Z,4
2017-08-12T02:43:32.509Z,0
2017-08-12T02:44:42.781Z,0
2017-08-12T02:45:53.059Z,4
2017-08-12T02:47:03.013Z,4
2017-08-12T02:48:12.972Z,4
2017-08-12T02:49:23.244Z,4
2017-08-12T02:50:33.535Z,4
2017-08-12T02:51:43.497Z,4
2017-08-12T02:52:53.142Z,8
2017-08-12T02:54:03.416Z,8
2017-08-12T02:55:13.410Z,8
2017-08-12T02:56:23.690Z,8
2017-08-12T02:57:33.957Z,8
2017-08-12T02:58:44.233Z,8
2017-08-12T02:59:54.191Z,4
2017-08-12T03:01:04.462Z,4
2017-08-12T03:02:14.422Z,8
2017-08-12T03:03:24.698Z,12
2017-08-12T03:04:34.976Z,8
2017-08-12T03:05:44.618Z,8
2017-08-12T03:06:54.892Z,12
2017-08-12T03:08:04.851Z,16
2017-08-12T03:09:15.146Z,16
2017-08-12T03:10:25.420Z,16
2017-08-12T03:11:35.692Z,24
2017-08-12T03:12:45.963Z,24
2017-08-12T03:13:56.235Z,24
2017-08-12T03:15:06.192Z,24
2017-08-12T03:16:16.459Z,24
2017-08-12T03:17:26.098Z,28
2017-08-12T03:18:36.371Z,32
2017-08-12T03:19:46.643Z,36
2017-08-12T03:20:56.937Z,36
2017-08-12T03:22:07.213Z,40
2017-08-12T03:23:16.856Z,48
2017-08-12T03:24:26.810Z,56
2017-08-12T03:25:36.454Z,64
2017-08-12T03:26:46.724Z,68
2017-08-12T03:27:56.678Z,76
2017-08-12T03:29:06.946Z,84
2017-08-12T03:30:17.222Z,96
2017-08-12T03:31:27.192Z,112
2017-08-12T03:32:37.149Z,124
2017-08-12T03:33:47.105Z,140
2017-08-12T03:34:57.374Z,144
2017-08-12T03:36:07.330Z,148
2017-08-12T03:37:17.600Z,152
2017-08-12T03:38:27.561Z,172
2017-08-12T03:39:37.830Z,208
2017-08-12T03:40:48.102Z,248
2017-08-12T03:41:58.060Z,276
2017-08-12T03:43:08.016Z,272
2017-08-12T03:44:18.285Z,260
2017-08-12T03:45:28.570Z,264
2017-08-12T03:46:38.851Z,284
2017-08-12T03:47:49.121Z,308
2017-08-12T03:48:59.080Z,356
2017-08-12T03:50:09.043Z,396
2017-08-12T03:51:19.001Z,432
2017-08-12T03:52:29.274Z,464
2017-08-12T03:53:38.923Z,516
2017-08-12T03:54:48.877Z,580
2017-08-12T03:55:59.150Z,648
2017-08-12T03:57:09.113Z,672
2017-08-12T03:58:19.382Z,656
2017-08-12T03:59:29.347Z,620
2017-08-12T04:00:39.615Z,564
2017-08-12T04:01:49.570Z,480
2017-08-12T04:02:59.843Z,452
2017-08-12T04:04:10.117Z,484
2017-08-12T04:05:20.087Z,500
2017-08-12T04:06:30.047Z,508
2017-08-12T04:07:39.689Z,536
2017-08-12T04:08:49.652Z,580
2017-08-12T04:09:59.293Z,608
2017-08-12T04:11:09.569Z,612
2017-08-12T04:12:19.841Z,672
2017-08-12T04:13:30.117Z,844
2017-08-12T04:14:40.387Z,1004
2017-08-12T04:15:50.658Z,1076
2017-08-12T04:17:00.927Z,992
2017-08-12T04:18:11.202Z,900
2017-08-12T04:19:21.478Z,856
2017-08-12T04:20:31.752Z,856
2017-08-12T04:21:41.717Z,960
2017-08-12T04:22:51.992Z,1076
2017-08-12T04:24:01.635Z,1180
2017-08-12T04:25:11.601Z,1152
2017-08-12T04:26:21.878Z,1076
2017-08-12T04:27:32.184Z,1072
2017-08-12T04:28:42.453Z,1320
2017-08-12T04:29:52.723Z,1448
2017-08-12T04:31:02.994Z,1368
2017-08-12T04:32:13.268Z,1336
2017-08-12T04:33:22.910Z,1472
2017-08-12T04:34:32.551Z,1556
2017-08-12T04:35:42.829Z,1784
2017-08-12T04:36:52.787Z,1984
2017-08-12T04:38:03.059Z,2132
2017-08-12T04:39:13.331Z,2224
2017-08-12T04:40:22.972Z,2196
2017-08-12T04:41:32.940Z,2148
2017-08-12T04:42:43.212Z,2044
2017-08-12T04:43:53.174Z,1920
2017-08-12T04:45:03.445Z,1848
2017-08-12T04:46:13.714Z,1928
2017-08-12T04:47:23.993Z,2060
2017-08-12T04:48:33.957Z,2080
2017-08-12T04:49:44.227Z,2060
2017-08-12T04:50:54.182Z,1996
2017-08-12T04:52:04.143Z,1936
2017-08-12T04:53:14.418Z,1992
2017-08-12T04:54:24.394Z,2136
2017-08-12T04:55:34.352Z,2204
2017-08-12T04:56:44.314Z,2164
2017-08-12T04:57:54.589Z,2040
2017-08-12T04:59:04.550Z,1984
2017-08-12T05:00:14.511Z,2064
2017-08-12T05:01:24.476Z,2264
2017-08-12T05:02:34.124Z,2488
2017-08-12T05:03:44.087Z,2656
2017-08-12T05:04:54.361Z,2756
2017-08-12T05:06:04.634Z,2844
2017-08-12T05:07:14.906Z,2928
2017-08-12T05:08:24.867Z,3116
2017-08-12T05:09:35.139Z,3252
2017-08-12T05:10:45.411Z,3220
2017-08-12T05:11:55.055Z,3216
2017-08-12T05:13:05.327Z,3168
2017-08-12T05:14:15.284Z,3292
2017-08-12T05:15:25.557Z,3460
2017-08-12T05:16:35.528Z,3508
2017-08-12T05:17:45.807Z,3428
2017-08-12T05:18:56.080Z,3388
2017-08-12T05:20:06.352Z,3140
2017-08-12T05:21:16.630Z,3004
2017-08-12T05:22:26.588Z,2804
2017-08-12T05:23:36.866Z,2704
2017-08-12T05:24:47.139Z,2556
2017-08-12T05:25:57.413Z,2452
2017-08-12T05:27:07.366Z,2516
2017-08-12T05:28:17.647Z,2548
2017-08-12T05:29:27.606Z,2548
2017-08-12T05:30:37.879Z,2544
2017-08-12T05:31:48.156Z,2544
2017-08-12T05:32:58.435Z,2564
2017-08-12T05:34:08.445Z,2580
2017-08-12T05:35:18.736Z,2632
2017-08-12T05:36:29.009Z,2728
2017-08-12T05:37:39.316Z,2920
2017-08-12T05:38:49.596Z,3100
2017-08-12T05:39:59.556Z,3336
2017-08-12T05:41:09.852Z,3436
2017-08-12T05:42:20.129Z,3628
2017-08-12T05:43:30.414Z,3792
2017-08-12T05:44:40.375Z,3792
2017-08-12T05:45:50.651Z,3560
2017-08-12T05:47:00.613Z,3368
2017-08-12T05:48:10.893Z,3272
2017-08-12T05:49:21.168Z,3132
2017-08-12T05:50:31.441Z,3056
2017-08-12T05:51:41.714Z,3032
2017-08-12T05:52:51.988Z,3004
2017-08-12T05:54:01.948Z,2800
2017-08-12T05:55:12.223Z,2780
2017-08-12T05:56:22.502Z,2936
2017-08-12T05:57:32.477Z,3100
2017-08-12T05:58:42.780Z,3312
2017-08-12T05:59:53.054Z,3548
2017-08-12T06:01:03.015Z,3824
2017-08-12T06:02:13.286Z,3960
2017-08-12T06:03:22.629Z,4036
2017-08-12T06:04:32.912Z,4280
2017-08-12T06:05:43.215Z,4404
2017-08-12T06:06:53.172Z,4356
2017-08-12T06:08:03.443Z,4204
2017-08-12T06:09:13.402Z,4048
2017-08-12T06:10:23.674Z,3992
2017-08-12T06:11:33.954Z,4016
2017-08-12T06:12:43.911Z,4132
2017-08-12T06:13:54.182Z,4188
2017-08-12T06:15:03.828Z,4348
2017-08-12T06:16:13.786Z,4448
2017-08-12T06:17:23.740Z,4432
2017-08-12T06:18:34.014Z,4424
2017-08-12T06:19:44.300Z,4480
2017-08-12T06:20:54.577Z,4536
2017-08-12T06:22:04.851Z,4552
2017-08-12T06:23:15.146Z,4564
2017-08-12T06:24:25.431Z,4772
2017-08-12T06:25:35.393Z,4896
2017-08-12T06:26:45.357Z,4748
2017-08-12T06:27:55.655Z,4908
2017-08-12T06:29:05.934Z,5068
2017-08-12T06:30:16.208Z,5264
2017-08-12T06:31:26.490Z,5420
2017-08-12T06:32:36.134Z,5608
2017-08-12T06:33:46.094Z,5816
2017-08-12T06:34:56.367Z,5716
2017-08-12T06:36:06.643Z,5444
2017-08-12T06:37:16.609Z,5060
2017-08-12T06:38:26.883Z,5480
2017-08-12T06:39:36.847Z,5592
2017-08-12T06:40:46.809Z,5980
2017-08-12T06:41:57.088Z,6352
2017-08-12T06:43:07.048Z,6508
2017-08-12T06:44:17.013Z,6108
2017-08-12T06:45:27.288Z,5636
2017-08-12T06:46:37.571Z,5152
2017-08-12T06:47:47.845Z,5268
2017-08-12T06:48:58.120Z,6020
2017-08-12T06:50:08.399Z,6616
2017-08-12T06:51:18.680Z,6848
2017-08-12T06:52:28.954Z,7348
2017-08-12T06:53:38.599Z,7868
2017-08-12T06:54:48.875Z,7812
2017-08-12T06:55:59.149Z,7192
2017-08-12T06:57:09.430Z,6344
2017-08-12T06:58:19.079Z,5628
2017-08-12T06:59:29.357Z,4956
2017-08-12T07:00:38.690Z,4712
2017-08-12T07:01:48.965Z,4736
2017-08-12T07:02:59.240Z,4856
2017-08-12T07:04:09.516Z,4972
2017-08-12T07:05:19.804Z,4876
2017-08-12T07:06:30.082Z,4808
2017-08-12T07:07:39.730Z,4824
2017-08-12T07:08:50.005Z,4916
2017-08-12T07:09:59.969Z,5140
2017-08-12T07:11:09.930Z,5532
2017-08-12T07:12:19.286Z,5680
2017-08-12T07:13:29.575Z,6012
2017-08-12T07:14:39.535Z,6896
2017-08-12T07:15:49.497Z,7152
2017-08-12T07:16:59.773Z,7744
2017-08-12T07:18:10.047Z,7972
2017-08-12T07:19:20.325Z,8632
2017-08-12T07:20:30.291Z,9076
2017-08-12T07:21:40.567Z,9232
2017-08-12T07:22:50.845Z,9364
2017-08-12T07:24:00.805Z,9376
2017-08-12T07:25:11.078Z,9112
2017-08-12T07:26:20.100Z,8520
2017-08-12T07:27:30.375Z,8172
2017-08-12T07:28:40.337Z,8424
2017-08-12T07:29:50.612Z,8216
2017-08-12T07:31:00.584Z,7872
2017-08-12T07:32:10.549Z,7452
2017-08-12T07:33:20.833Z,7476
2017-08-12T07:34:31.108Z,7144
2017-08-12T07:35:41.072Z,6696
2017-08-12T07:36:51.032Z,6388
2017-08-12T07:38:01.308Z,6172
2017-08-12T07:39:11.588Z,5992
2017-08-12T07:40:21.547Z,6400
2017-08-12T07:41:31.827Z,7032
2017-08-12T07:42:41.801Z,7780
2017-08-12T07:43:51.771Z,8408
2017-08-12T07:45:01.729Z,8928
2017-08-12T07:46:11.693Z,8520
2017-08-12T07:47:21.654Z,8516
2017-08-12T07:48:31.939Z,8096
2017-08-12T07:49:42.215Z,7112
2017-08-12T07:50:52.179Z,6392
2017-08-12T07:52:01.828Z,5840
2017-08-12T07:53:12.124Z,6032
2017-08-12T07:54:21.772Z,6184
2017-08-12T07:55:32.054Z,6284
2017-08-12T07:56:42.019Z,6096
2017-08-12T07:57:51.982Z,5848
2017-08-12T07:59:01.946Z,6100
2017-08-12T08:00:12.237Z,5820
2017-08-12T08:01:22.232Z,5324
2017-08-12T08:02:32.199Z,5268
2017-08-12T08:03:42.161Z,5328
2017-08-12T08:04:52.437Z,5144
2017-08-12T08:06:02.085Z,5776
2017-08-12T08:07:12.360Z,6084
2017-08-12T08:08:22.639Z,6344
2017-08-12T08:09:32.914Z,6688
2017-08-12T08:10:43.193Z,6920
2017-08-12T08:11:53.475Z,6912
2017-08-12T08:13:03.758Z,7132
2017-08-12T08:14:14.040Z,7252
2017-08-12T08:15:24.009Z,7168
2017-08-12T08:16:33.973Z,7116
2017-08-12T08:17:44.260Z,7212
2017-08-12T08:18:53.907Z,7392
2017-08-12T08:20:03.555Z,8152
2017-08-12T08:21:13.839Z,8512
2017-08-12T08:22:23.801Z,8384
2017-08-12T08:23:34.081Z,8184
2017-08-12T08:24:44.368Z,7860
2017-08-12T08:25:54.330Z,7968
2017-08-12T08:27:04.612Z,7796
2017-08-12T08:28:14.888Z,7024
2017-08-12T08:29:25.174Z,6336
2017-08-12T08:30:35.136Z,6200
2017-08-12T08:31:45.096Z,6492
2017-08-12T08:32:55.060Z,7272
2017-08-12T08:34:05.337Z,7784
2017-08-12T08:35:15.330Z,7612
2017-08-12T08:36:25.292Z,8288
2017-08-12T08:37:35.566Z,7964
2017-08-12T08:38:45.844Z,7500
2017-08-12T08:39:56.126Z,6496
2017-08-12T08:41:06.099Z,5536
2017-08-12T08:42:16.059Z,5300
2017-08-12T08:43:25.396Z,5404
2017-08-12T08:44:35.676Z,5532
2017-08-12T08:45:45.957Z,5340
2017-08-12T08:46:56.235Z,5160
2017-08-12T08:48:06.202Z,5696
2017-08-12T08:49:16.164Z,6052
2017-08-12T08:50:26.126Z,5976
2017-08-12T08:51:36.088Z,5620
2017-08-12T08:52:46.374Z,5616
2017-08-12T08:53:56.345Z,5672
2017-08-12T08:55:06.625Z,5796
2017-08-12T08:56:16.907Z,6048
2017-08-12T08:57:26.865Z,6660
2017-08-12T08:58:37.141Z,7124
2017-08-12T08:59:46.785Z,7192
2017-08-12T09:00:57.067Z,7188
2017-08-12T09:02:06.713Z,7264
2017-08-12T09:03:16.994Z,7200
2017-08-12T09:04:27.273Z,7100
2017-08-12T09:05:37.547Z,7240
2017-08-12T09:06:47.512Z,7328
2017-08-12T09:07:57.785Z,7420
2017-08-12T09:09:07.746Z,7324
2017-08-12T09:10:17.392Z,7464
2017-08-12T09:11:27.672Z,7584
2017-08-12T09:12:37.952Z,7736
2017-08-12T09:13:48.229Z,7812
2017-08-12T09:14:58.501Z,7812
2017-08-12T09:16:08.467Z,7536
2017-08-12T09:17:18.118Z,7472
2017-08-12T09:18:28.407Z,7352
2017-08-12T09:19:38.686Z,7420
2017-08-12T09:20:48.961Z,7864
2017-08-12T09:21:59.274Z,8568
2017-08-12T09:23:09.235Z,9236
2017-08-12T09:24:19.205Z,9380
2017-08-12T09:25:29.484Z,9564
2017-08-12T09:26:39.765Z,9640
2017-08-12T09:27:49.725Z,9804
2017-08-12T09:29:00.004Z,9304
2017-08-12T09:30:10.286Z,9456
2017-08-12T09:31:20.246Z,9688
2017-08-12T09:32:30.524Z,9964
2017-08-12T09:33:40.798Z,10068
2017-08-12T09:34:50.760Z,10372
2017-08-12T09:36:00.722Z,10644
2017-08-12T09:37:10.692Z,11292
2017-08-12T09:38:20.691Z,11384
2017-08-12T09:39:30.970Z,11284
2017-08-12T09:40:41.249Z,11800
2017-08-12T09:41:50.898Z,12116
2017-08-12T09:43:01.176Z,11900
2017-08-12T09:44:11.454Z,12380
2017-08-12T09:45:21.730Z,12208
2017-08-12T09:46:32.012Z,11664
2017-08-12T09:47:42.292Z,12036
2017-08-12T09:48:52.256Z,11356
2017-08-12T09:50:02.539Z,11288
2017-08-12T09:51:12.818Z,10536
2017-08-12T09:52:23.095Z,9748
2017-08-12T09:53:33.373Z,10316
2017-08-12T09:54:43.337Z,9920
2017-08-12T09:55:53.300Z,11664
2017-08-12T09:57:03.575Z,12616
2017-08-12T09:58:13.538Z,12740
2017-08-12T09:59:23.813Z,13204
2017-08-12T10:00:34.094Z,12636
2017-08-12T10:01:44.371Z,11876
2017-08-12T10:02:54.653Z,12008
2017-08-12T10:04:04.933Z,12340
2017-08-12T10:05:14.898Z,12672
2017-08-12T10:06:24.863Z,13368
2017-08-12T10:07:35.149Z,13508
2017-08-12T10:08:45.112Z,13588
2017-08-12T10:09:55.075Z,13000
2017-08-12T10:11:05.353Z,12160
2017-08-12T10:12:15.004Z,10880
2017-08-12T10:13:24.652Z,10436
2017-08-12T10:14:34.619Z,9700
2017-08-12T10:15:44.899Z,9272
2017-08-12T10:16:55.177Z,9292
2017-08-12T10:18:05.477Z,9496
2017-08-12T10:19:15.446Z,9544
2017-08-12T10:20:25.731Z,9420
2017-08-12T10:21:36.009Z,9456
2017-08-12T10:22:46.288Z,9568
2017-08-12T10:23:56.249Z,9920
2017-08-12T10:25:06.532Z,10068
2017-08-12T10:26:16.500Z,10216
2017-08-12T10:27:26.778Z,10708
2017-08-12T10:28:37.058Z,11348
2017-08-12T10:29:47.339Z,11904
2017-08-12T10:30:57.716Z,12248
2017-08-12T10:32:07.678Z,12644
2017-08-12T10:33:17.333Z,12684
2017-08-12T10:34:27.611Z,12472
2017-08-12T10:35:37.887Z,12504
2017-08-12T10:36:47.537Z,12504
2017-08-12T10:37:57.503Z,12984
2017-08-12T10:39:07.153Z,13364
2017-08-12T10:40:17.455Z,13308
2017-08-12T10:41:27.731Z,13388
2017-08-12T10:42:37.381Z,13448
2017-08-12T10:43:47.656Z,13640
2017-08-12T10:44:57.930Z,13116
2017-08-12T10:46:07.900Z,13024
2017-08-12T10:47:17.862Z,13084
2017-08-12T10:48:27.828Z,13212
2017-08-12T10:49:37.478Z,13584
2017-08-12T10:50:47.442Z,13816
2017-08-12T10:51:57.409Z,14236
2017-08-12T10:53:07.373Z,14540
2017-08-12T10:54:17.652Z,14936
2017-08-12T10:55:27.617Z,14812
2017-08-12T10:56:37.896Z,14476
2017-08-12T10:57:47.861Z,13812
2017-08-12T10:58:58.164Z,13424
2017-08-12T11:00:08.147Z,12628
2017-08-12T11:01:18.111Z,11948
2017-08-12T11:02:28.079Z,11680
2017-08-12T11:03:38.047Z,12260
2017-08-12T11:04:48.326Z,12432
2017-08-12T11:05:58.603Z,12800
2017-08-12T11:07:08.878Z,14032
2017-08-12T11:08:19.162Z,15156
2017-08-12T11:09:29.131Z,15396
2017-08-12T11:10:39.448Z,15592
2017-08-12T11:11:49.732Z,15828
2017-08-12T11:13:00.018Z,15828
2017-08-12T11:14:10.295Z,15796
2017-08-12T11:15:20.259Z,14676
2017-08-12T11:16:30.222Z,13992
2017-08-12T11:17:40.185Z,14084
2017-08-12T11:18:50.460Z,14240
2017-08-12T11:20:00.425Z,14300
2017-08-12T11:21:10.708Z,15448
2017-08-12T11:22:20.673Z,17280
2017-08-12T11:23:30.642Z,17888
2017-08-12T11:24:40.293Z,18464
2017-08-12T11:25:50.570Z,18624
2017-08-12T11:27:00.535Z,18784
2017-08-12T11:28:10.813Z,18752
2017-08-12T11:29:21.099Z,18848
2017-08-12T11:30:30.747Z,20096
2017-08-12T11:31:41.032Z,29632
2017-08-12T11:32:51.311Z,37120
2017-08-12T11:34:01.592Z,40192
2017-08-12T11:35:11.872Z,31616
2017-08-12T11:36:21.840Z,44544
2017-08-12T11:37:32.125Z,40672
2017-08-12T11:38:42.405Z,34368
2017-08-12T11:39:52.692Z,33088
2017-08-12T11:41:02.664Z,20768
2017-08-12T11:42:12.953Z,19808
2017-08-12T11:43:22.920Z,23616
2017-08-12T11:44:33.199Z,33376
2017-08-12T11:45:43.168Z,13472
2017-08-12T11:46:53.137Z,12484
2017-08-12T11:48:03.110Z,12268
2017-08-12T11:49:12.766Z,13172
2017-08-12T11:50:22.733Z,12108
2017-08-12T11:51:33.017Z,10944
2017-08-12T11:52:42.991Z,10776
2017-08-12T11:53:53.269Z,11084
2017-08-12T11:55:03.548Z,11036
2017-08-12T11:56:13.544Z,11912
2017-08-12T11:57:23.523Z,13276
2017-08-12T11:58:33.801Z,33120
2017-08-12T11:59:43.766Z,20160
2017-08-12T12:01:01.352Z,67232
2017-08-12T12:02:11.322Z,62112
2017-08-12T12:03:21.599Z,58816
2017-08-12T12:04:31.885Z,69120
2017-08-12T12:05:41.860Z,25504
2017-08-12T12:06:52.142Z,17248
2017-08-12T12:08:02.424Z,27392
2017-08-12T12:09:12.396Z,47904
2017-08-12T12:10:22.677Z,45696
2017-08-12T12:11:33.001Z,59872
2017-08-12T12:12:42.969Z,58080
2017-08-12T12:13:53.252Z,67488
2017-08-12T12:15:03.235Z,66208
2017-08-12T12:16:12.896Z,53952
2017-08-12T12:17:22.863Z,74240
2017-08-12T12:18:32.519Z,16448
2017-08-12T12:19:42.177Z,18080
2017-08-12T12:20:52.144Z,29056
2017-08-12T12:22:02.430Z,85248
2017-08-12T12:23:12.711Z,82816
2017-08-12T12:24:23.004Z,71776
2017-08-12T12:25:32.972Z,17696
2017-08-12T12:26:43.258Z,15432
2017-08-12T12:27:52.916Z,14032
2017-08-12T12:29:03.198Z,13544
2017-08-12T12:30:13.488Z,12416
2017-08-12T12:31:23.770Z,12132
2017-08-12T12:32:33.433Z,12332
2017-08-12T12:33:45.407Z,12476
2017-08-12T12:34:55.696Z,11852
2017-08-12T12:36:05.984Z,13436
2017-08-12T12:37:15.639Z,17440
2017-08-12T12:38:25.291Z,23520
2017-08-12T12:39:35.261Z,39008
2017-08-12T12:40:45.228Z,23744
2017-08-12T12:41:54.878Z,51904
2017-08-12T12:43:04.533Z,14448
2017-08-12T12:44:14.818Z,11100
2017-08-12T12:45:25.100Z,9108
2017-08-12T12:46:35.069Z,8476
2017-08-12T12:47:45.349Z,10392
2017-08-12T12:48:55.321Z,15808
2017-08-12T12:50:05.286Z,37216
2017-08-12T12:51:15.256Z,87776
2017-08-12T12:52:25.537Z,74784
2017-08-12T12:53:35.515Z,74336
2017-08-12T12:54:45.482Z,71712
2017-08-12T12:55:55.761Z,22112
2017-08-12T12:57:06.042Z,20320
2017-08-12T12:58:16.016Z,28000
2017-08-12T12:59:25.982Z,42336
2017-08-12T13:00:35.951Z,33536
2017-08-12T13:01:46.234Z,27904
2017-08-12T13:02:56.516Z,92608
2017-08-12T13:04:06.805Z,71360
2017-08-12T13:05:16.773Z,27424
2017-08-12T13:06:27.056Z,16672
2017-08-12T13:07:37.336Z,18880
2017-08-12T13:08:47.621Z,16512
2017-08-12T13:09:57.901Z,26432
2017-08-12T13:11:07.876Z,26496
2017-08-12T13:12:18.174Z,23968
2017-08-12T13:13:28.458Z,63776
2017-08-12T13:14:38.741Z,24064
2017-08-12T13:15:49.020Z,34944
2017-08-12T13:16:59.303Z,46656
2017-08-12T13:18:08.645Z,28736
2017-08-12T13:19:18.923Z,43520
2017-08-12T13:20:28.902Z,19872
2017-08-12T13:21:39.183Z,71264
2017-08-12T13:22:48.838Z,29824
2017-08-12T13:23:59.137Z,61856
2017-08-12T13:25:09.416Z,61120
2017-08-12T13:26:18.754Z,61472
2017-08-12T13:27:29.035Z,86880
2017-08-12T13:28:38.689Z,44192
2017-08-12T13:29:48.971Z,89984
2017-08-12T13:30:59.259Z,83776
2017-08-12T13:32:09.547Z,38976
2017-08-12T13:33:19.844Z,94272
2017-08-12T13:34:29.815Z,70432
2017-08-12T13:35:39.797Z,90912
2017-08-12T13:36:50.090Z,79552
2017-08-12T13:38:00.376Z,58432
2017-08-12T13:39:10.685Z,45760
2017-08-12T13:40:20.969Z,56256
2017-08-12T13:41:31.266Z,71456
2017-08-12T13:42:41.557Z,21472
2017-08-12T13:43:51.854Z,36992
2017-08-12T13:45:02.137Z,53760
2017-08-12T13:46:12.418Z,49952
2017-08-12T13:47:22.389Z,48288
2017-08-12T13:48:32.361Z,57536
2017-08-12T13:49:42.652Z,60224
2017-08-12T13:50:52.619Z,48096
2017-08-12T13:52:02.589Z,49856
2017-08-12T13:53:12.570Z,91424
2017-08-12T13:54:22.540Z,72928
2017-08-12T13:55:32.199Z,49728
2017-08-12T13:56:42.170Z,27392
2017-08-12T13:57:52.460Z,21760
2017-08-12T13:59:02.743Z,28032
2017-08-12T14:00:13.031Z,60128
2017-08-12T14:01:23.319Z,49248
2017-08-12T14:02:32.986Z,42240
2017-08-12T14:03:42.654Z,37536
2017-08-12T14:04:52.937Z,40032
2017-08-12T14:06:02.600Z,48256
2017-08-12T14:07:15.097Z,37760
2017-08-12T14:08:24.775Z,42688
2017-08-12T14:09:35.073Z,46528
2017-08-12T14:10:45.361Z,49760
2017-08-12T14:11:55.655Z,43616
2017-08-12T14:13:05.310Z,25920
2017-08-12T14:14:15.596Z,31392
2017-08-12T14:15:25.563Z,47584
2017-08-12T14:16:35.874Z,46496
2017-08-12T14:17:45.840Z,46624
2017-08-12T14:18:55.810Z,27968
2017-08-12T14:20:05.467Z,48512
2017-08-12T14:21:15.442Z,43392
2017-08-12T14:22:25.736Z,61536
2017-08-12T14:23:35.704Z,46112
2017-08-12T14:24:45.991Z,31456
2017-08-12T14:25:56.275Z,34336
2017-08-12T14:27:06.247Z,30848
2017-08-12T14:28:16.532Z,41536
2017-08-12T14:29:26.815Z,26848
2017-08-12T14:30:37.098Z,42880
2017-08-12T14:31:47.381Z,32096
2017-08-12T14:32:57.349Z,33472
2017-08-12T14:34:07.639Z,15472
2017-08-12T14:35:17.921Z,23136
2017-08-12T14:36:28.212Z,23104
2017-08-12T14:37:38.494Z,16160
2017-08-12T14:38:48.471Z,40000
2017-08-12T14:39:58.130Z,11628
2017-08-12T14:41:08.421Z,9576
2017-08-12T14:42:18.707Z,6920
2017-08-12T14:43:29.001Z,5256
2017-08-12T14:44:39.279Z,3512
2017-08-12T14:45:49.247Z,2832
2017-08-12T14:46:59.531Z,2356
2017-08-12T14:48:09.818Z,2048
2017-08-12T14:49:19.475Z,2064
2017-08-12T14:50:29.440Z,2124
2017-08-12T14:51:39.721Z,2288
2017-08-12T14:52:49.691Z,2504
2017-08-12T14:53:59.971Z,2936
2017-08-12T14:55:09.942Z,3164
2017-08-12T14:56:20.232Z,3536
2017-08-12T14:57:30.524Z,3684
2017-08-12T14:58:40.802Z,3616
2017-08-12T14:59:50.763Z,3328
2017-08-12T15:01:01.041Z,3308
2017-08-12T15:02:11.000Z,3368
2017-08-12T15:03:21.290Z,3500
2017-08-12T15:04:31.563Z,3872
2017-08-12T15:05:41.855Z,4316
2017-08-12T15:06:51.819Z,4560
2017-08-12T15:08:01.474Z,4668
2017-08-12T15:09:11.436Z,4912
2017-08-12T15:10:21.399Z,5388
2017-08-12T15:11:31.358Z,6072
2017-08-12T15:12:41.316Z,7188
2017-08-12T15:13:51.604Z,8228
2017-08-12T15:15:01.593Z,8128
2017-08-12T15:16:11.869Z,7940
2017-08-12T15:17:21.833Z,7988
2017-08-12T15:18:31.809Z,8180
2017-08-12T15:19:42.088Z,7632
2017-08-12T15:20:52.363Z,7400
2017-08-12T15:22:02.646Z,6968
2017-08-12T15:23:12.607Z,6628
2017-08-12T15:24:22.256Z,5676
2017-08-12T15:25:32.219Z,4016
2017-08-12T15:26:42.179Z,3212
2017-08-12T15:27:52.182Z,2780
2017-08-12T15:29:02.456Z,2516
2017-08-12T15:30:13.378Z,2452
2017-08-12T15:31:23.376Z,2456
2017-08-12T15:32:33.648Z,2308
2017-08-12T15:33:43.922Z,2004
2017-08-12T15:34:53.890Z,1764
2017-08-12T15:36:03.847Z,1660
2017-08-12T15:37:14.227Z,1672
2017-08-12T15:38:24.498Z,1712
2017-08-12T15:39:34.144Z,1704
2017-08-12T15:40:44.104Z,1708
2017-08-12T15:41:53.756Z,1716
2017-08-12T15:43:03.716Z,1768
2017-08-12T15:44:13.673Z,1884